sensor_id;sensor_type;location;lat;lon;timestamp;P1;durP1;ratioP1;P2;durP2;ratioP2
6292;SDS011;3179;54.350;10.102;2022-09-09T00:02:12;17.97;;;15.00;;
6292;SDS011;3179;54.350;10.102;2022-09-09T00:04:45;19.33;;;15.23;;
6292;SDS011;3179;54.350;10.102;2022-09-09T00:07:21;20.43;;;16.40;;
6292;SDS011;3179;54.350;10.102;2022-09-09T00:09:57;20.13;;;15.50;;
6292;SDS011;3179;54.350;10.102;2022-09-09T00:12:34;19.17;;;15.00;;
6292;SDS011;3179;54.350;10.102;2022-09-09T00:15:07;21.17;;;17.43;;
6292;SDS011;3179;54.350;10.102;2022-09-09T00:17:39;21.00;;;16.97;;
6292;SDS011;3179;54.350;10.102;2022-09-09T00:20:16;20.17;;;16.50;;
6292;SDS011;3179;54.350;10.102;2022-09-09T00:22:50;18.93;;;16.77;;
6292;SDS011;3179;54.350;10.102;2022-09-09T00:25:27;17.47;;;15.37;;
6292;SDS011;3179;54.350;10.102;2022-09-09T00:28:02;18.73;;;15.17;;
6292;SDS011;3179;54.350;10.102;2022-09-09T00:30:34;20.47;;;15.57;;
6292;SDS011;3179;54.350;10.102;2022-09-09T00:33:08;22.80;;;18.13;;
6292;SDS011;3179;54.350;10.102;2022-09-09T00:35:42;22.30;;;16.50;;
6292;SDS011;3179;54.350;10.102;2022-09-09T00:38:13;19.97;;;15.97;;
6292;SDS011;3179;54.350;10.102;2022-09-09T00:40:45;18.23;;;15.50;;
6292;SDS011;3179;54.350;10.102;2022-09-09T00:43:21;18.67;;;15.50;;
6292;SDS011;3179;54.350;10.102;2022-09-09T00:45:56;19.43;;;16.37;;
6292;SDS011;3179;54.350;10.102;2022-09-09T00:48:37;23.87;;;19.00;;
6292;SDS011;3179;54.350;10.102;2022-09-09T00:51:17;20.80;;;16.50;;
6292;SDS011;3179;54.350;10.102;2022-09-09T00:53:58;20.60;;;16.20;;
6292;SDS011;3179;54.350;10.102;2022-09-09T00:56:42;18.13;;;15.80;;
6292;SDS011;3179;54.350;10.102;2022-09-09T00:59:22;18.90;;;16.13;;
6292;SDS011;3179;54.350;10.102;2022-09-09T01:01:54;17.67;;;15.40;;
6292;SDS011;3179;54.350;10.102;2022-09-09T01:04:23;20.17;;;16.00;;
6292;SDS011;3179;54.350;10.102;2022-09-09T01:06:58;17.37;;;15.43;;
6292;SDS011;3179;54.350;10.102;2022-09-09T01:09:37;21.60;;;17.67;;
6292;SDS011;3179;54.350;10.102;2022-09-09T01:12:11;18.97;;;16.80;;
6292;SDS011;3179;54.350;10.102;2022-09-09T01:14:42;17.50;;;15.60;;
6292;SDS011;3179;54.350;10.102;2022-09-09T01:17:14;19.40;;;16.90;;
6292;SDS011;3179;54.350;10.102;2022-09-09T01:19:47;16.43;;;14.30;;
6292;SDS011;3179;54.350;10.102;2022-09-09T01:22:35;17.33;;;13.90;;
6292;SDS011;3179;54.350;10.102;2022-09-09T01:25:22;18.37;;;14.37;;
6292;SDS011;3179;54.350;10.102;2022-09-09T01:27:59;19.03;;;16.20;;
6292;SDS011;3179;54.350;10.102;2022-09-09T01:30:29;17.63;;;14.80;;
6292;SDS011;3179;54.350;10.102;2022-09-09T01:32:58;15.50;;;13.90;;
6292;SDS011;3179;54.350;10.102;2022-09-09T01:35:37;15.83;;;14.23;;
6292;SDS011;3179;54.350;10.102;2022-09-09T01:38:09;18.20;;;14.53;;
6292;SDS011;3179;54.350;10.102;2022-09-09T01:40:36;16.33;;;14.50;;
6292;SDS011;3179;54.350;10.102;2022-09-09T01:43:04;18.03;;;15.03;;
6292;SDS011;3179;54.350;10.102;2022-09-09T01:45:32;17.37;;;14.90;;
6292;SDS011;3179;54.350;10.102;2022-09-09T01:47:59;16.20;;;14.20;;
6292;SDS011;3179;54.350;10.102;2022-09-09T01:50:28;17.30;;;15.50;;
6292;SDS011;3179;54.350;10.102;2022-09-09T01:52:56;16.43;;;14.70;;
6292;SDS011;3179;54.350;10.102;2022-09-09T01:55:28;16.07;;;13.40;;
6292;SDS011;3179;54.350;10.102;2022-09-09T01:58:00;16.20;;;13.83;;
6292;SDS011;3179;54.350;10.102;2022-09-09T02:00:44;18.17;;;14.70;;
6292;SDS011;3179;54.350;10.102;2022-09-09T02:03:19;17.03;;;14.80;;
6292;SDS011;3179;54.350;10.102;2022-09-09T02:05:51;16.77;;;14.30;;
6292;SDS011;3179;54.350;10.102;2022-09-09T02:08:26;16.77;;;12.97;;
6292;SDS011;3179;54.350;10.102;2022-09-09T02:11:01;15.40;;;13.73;;
6292;SDS011;3179;54.350;10.102;2022-09-09T02:13:34;16.10;;;13.10;;
6292;SDS011;3179;54.350;10.102;2022-09-09T02:16:03;17.83;;;14.57;;
6292;SDS011;3179;54.350;10.102;2022-09-09T02:18:35;16.97;;;14.63;;
6292;SDS011;3179;54.350;10.102;2022-09-09T02:21:07;13.97;;;12.53;;
6292;SDS011;3179;54.350;10.102;2022-09-09T02:23:36;15.70;;;14.10;;
6292;SDS011;3179;54.350;10.102;2022-09-09T02:26:05;15.50;;;13.30;;
6292;SDS011;3179;54.350;10.102;2022-09-09T02:28:34;17.40;;;13.63;;
6292;SDS011;3179;54.350;10.102;2022-09-09T02:31:02;15.83;;;13.80;;
6292;SDS011;3179;54.350;10.102;2022-09-09T02:33:30;14.43;;;12.97;;
6292;SDS011;3179;54.350;10.102;2022-09-09T02:36:03;16.80;;;14.50;;
6292;SDS011;3179;54.350;10.102;2022-09-09T02:38:34;18.03;;;13.80;;
6292;SDS011;3179;54.350;10.102;2022-09-09T02:41:03;17.83;;;13.90;;
6292;SDS011;3179;54.350;10.102;2022-09-09T02:43:31;15.30;;;12.83;;
6292;SDS011;3179;54.350;10.102;2022-09-09T02:46:02;16.90;;;14.13;;
6292;SDS011;3179;54.350;10.102;2022-09-09T02:48:34;14.67;;;13.17;;
6292;SDS011;3179;54.350;10.102;2022-09-09T02:51:10;19.17;;;16.23;;
6292;SDS011;3179;54.350;10.102;2022-09-09T02:53:43;19.03;;;15.50;;
6292;SDS011;3179;54.350;10.102;2022-09-09T02:56:17;20.73;;;15.43;;
6292;SDS011;3179;54.350;10.102;2022-09-09T02:58:47;20.37;;;15.27;;
6292;SDS011;3179;54.350;10.102;2022-09-09T03:01:18;20.97;;;15.67;;
6292;SDS011;3179;54.350;10.102;2022-09-09T03:03:44;20.37;;;13.70;;
6292;SDS011;3179;54.350;10.102;2022-09-09T03:06:11;18.87;;;14.67;;
6292;SDS011;3179;54.350;10.102;2022-09-09T03:08:39;20.77;;;15.43;;
6292;SDS011;3179;54.350;10.102;2022-09-09T03:11:07;21.80;;;15.57;;
6292;SDS011;3179;54.350;10.102;2022-09-09T03:13:34;23.67;;;17.57;;
6292;SDS011;3179;54.350;10.102;2022-09-09T03:16:02;22.67;;;16.73;;
6292;SDS011;3179;54.350;10.102;2022-09-09T03:18:31;25.37;;;18.57;;
6292;SDS011;3179;54.350;10.102;2022-09-09T03:20:59;21.50;;;16.33;;
6292;SDS011;3179;54.350;10.102;2022-09-09T03:23:26;22.83;;;16.90;;
6292;SDS011;3179;54.350;10.102;2022-09-09T03:25:54;24.20;;;17.97;;
6292;SDS011;3179;54.350;10.102;2022-09-09T03:28:22;29.60;;;19.57;;
6292;SDS011;3179;54.350;10.102;2022-09-09T03:30:57;29.33;;;19.53;;
6292;SDS011;3179;54.350;10.102;2022-09-09T03:33:26;27.30;;;19.33;;
6292;SDS011;3179;54.350;10.102;2022-09-09T03:35:55;25.23;;;18.13;;
6292;SDS011;3179;54.350;10.102;2022-09-09T03:38:23;24.60;;;17.97;;
6292;SDS011;3179;54.350;10.102;2022-09-09T03:40:50;27.73;;;18.93;;
6292;SDS011;3179;54.350;10.102;2022-09-09T03:43:20;27.33;;;19.57;;
6292;SDS011;3179;54.350;10.102;2022-09-09T03:45:47;28.30;;;20.60;;
6292;SDS011;3179;54.350;10.102;2022-09-09T03:48:14;26.17;;;19.60;;
6292;SDS011;3179;54.350;10.102;2022-09-09T03:50:44;27.30;;;20.13;;
6292;SDS011;3179;54.350;10.102;2022-09-09T03:53:12;31.70;;;19.10;;
6292;SDS011;3179;54.350;10.102;2022-09-09T03:55:43;29.83;;;19.93;;
6292;SDS011;3179;54.350;10.102;2022-09-09T03:58:10;30.23;;;20.53;;
6292;SDS011;3179;54.350;10.102;2022-09-09T04:00:39;29.33;;;20.70;;
6292;SDS011;3179;54.350;10.102;2022-09-09T04:03:07;32.60;;;21.60;;
6292;SDS011;3179;54.350;10.102;2022-09-09T04:05:34;31.70;;;20.27;;
6292;SDS011;3179;54.350;10.102;2022-09-09T04:08:04;29.30;;;19.57;;
6292;SDS011;3179;54.350;10.102;2022-09-09T04:10:32;25.43;;;18.40;;
6292;SDS011;3179;54.350;10.102;2022-09-09T04:13:01;27.00;;;19.50;;
6292;SDS011;3179;54.350;10.102;2022-09-09T04:15:27;25.80;;;17.20;;
6292;SDS011;3179;54.350;10.102;2022-09-09T04:17:55;24.63;;;17.60;;
6292;SDS011;3179;54.350;10.102;2022-09-09T04:20:22;24.70;;;18.33;;
6292;SDS011;3179;54.350;10.102;2022-09-09T04:22:48;29.90;;;20.00;;
6292;SDS011;3179;54.350;10.102;2022-09-09T04:25:15;28.80;;;19.60;;
6292;SDS011;3179;54.350;10.102;2022-09-09T04:27:43;30.07;;;19.87;;
6292;SDS011;3179;54.350;10.102;2022-09-09T04:30:10;27.00;;;19.23;;
6292;SDS011;3179;54.350;10.102;2022-09-09T04:32:38;29.97;;;19.80;;
6292;SDS011;3179;54.350;10.102;2022-09-09T04:35:05;24.50;;;18.50;;
6292;SDS011;3179;54.350;10.102;2022-09-09T04:37:32;28.37;;;18.93;;
6292;SDS011;3179;54.350;10.102;2022-09-09T04:39:58;25.60;;;17.87;;
6292;SDS011;3179;54.350;10.102;2022-09-09T04:42:27;32.83;;;21.57;;
6292;SDS011;3179;54.350;10.102;2022-09-09T04:44:55;29.80;;;19.50;;
6292;SDS011;3179;54.350;10.102;2022-09-09T04:47:21;29.30;;;19.90;;
6292;SDS011;3179;54.350;10.102;2022-09-09T04:49:48;28.00;;;19.03;;
6292;SDS011;3179;54.350;10.102;2022-09-09T04:52:15;29.00;;;19.40;;
6292;SDS011;3179;54.350;10.102;2022-09-09T04:54:42;25.30;;;17.43;;
6292;SDS011;3179;54.350;10.102;2022-09-09T04:57:10;28.03;;;18.53;;
6292;SDS011;3179;54.350;10.102;2022-09-09T04:59:36;25.70;;;19.23;;
6292;SDS011;3179;54.350;10.102;2022-09-09T05:02:05;36.80;;;22.60;;
6292;SDS011;3179;54.350;10.102;2022-09-09T05:04:32;31.40;;;20.83;;
6292;SDS011;3179;54.350;10.102;2022-09-09T05:06:59;45.60;;;23.03;;
6292;SDS011;3179;54.350;10.102;2022-09-09T05:09:26;34.57;;;22.53;;
6292;SDS011;3179;54.350;10.102;2022-09-09T05:11:53;37.37;;;23.43;;
6292;SDS011;3179;54.350;10.102;2022-09-09T05:14:19;32.40;;;21.67;;
6292;SDS011;3179;54.350;10.102;2022-09-09T05:16:46;30.37;;;21.33;;
6292;SDS011;3179;54.350;10.102;2022-09-09T05:19:16;38.60;;;25.53;;
6292;SDS011;3179;54.350;10.102;2022-09-09T05:21:45;35.30;;;23.80;;
6292;SDS011;3179;54.350;10.102;2022-09-09T05:24:12;34.67;;;23.67;;
6292;SDS011;3179;54.350;10.102;2022-09-09T05:26:38;36.60;;;24.90;;
6292;SDS011;3179;54.350;10.102;2022-09-09T05:29:05;37.30;;;24.40;;
6292;SDS011;3179;54.350;10.102;2022-09-09T05:31:33;36.53;;;25.37;;
6292;SDS011;3179;54.350;10.102;2022-09-09T05:33:59;34.57;;;24.17;;
6292;SDS011;3179;54.350;10.102;2022-09-09T05:36:28;33.07;;;23.57;;
6292;SDS011;3179;54.350;10.102;2022-09-09T05:38:54;35.53;;;24.40;;
6292;SDS011;3179;54.350;10.102;2022-09-09T05:41:21;36.57;;;25.83;;
6292;SDS011;3179;54.350;10.102;2022-09-09T05:43:48;34.20;;;24.97;;
6292;SDS011;3179;54.350;10.102;2022-09-09T05:46:16;33.73;;;23.27;;
6292;SDS011;3179;54.350;10.102;2022-09-09T05:48:44;34.03;;;24.90;;
6292;SDS011;3179;54.350;10.102;2022-09-09T05:51:13;35.90;;;24.17;;
6292;SDS011;3179;54.350;10.102;2022-09-09T05:53:43;31.60;;;21.93;;
6292;SDS011;3179;54.350;10.102;2022-09-09T05:56:12;30.07;;;20.40;;
6292;SDS011;3179;54.350;10.102;2022-09-09T05:58:40;30.10;;;20.50;;
6292;SDS011;3179;54.350;10.102;2022-09-09T06:01:09;29.60;;;20.50;;
6292;SDS011;3179;54.350;10.102;2022-09-09T06:03:38;28.53;;;20.10;;
6292;SDS011;3179;54.350;10.102;2022-09-09T06:06:06;30.73;;;21.50;;
6292;SDS011;3179;54.350;10.102;2022-09-09T06:08:35;27.33;;;20.50;;
6292;SDS011;3179;54.350;10.102;2022-09-09T06:11:05;28.70;;;21.17;;
6292;SDS011;3179;54.350;10.102;2022-09-09T06:13:33;29.40;;;22.33;;
6292;SDS011;3179;54.350;10.102;2022-09-09T06:16:02;31.37;;;20.40;;
6292;SDS011;3179;54.350;10.102;2022-09-09T06:18:29;31.80;;;21.27;;
6292;SDS011;3179;54.350;10.102;2022-09-09T06:20:56;25.50;;;18.97;;
6292;SDS011;3179;54.350;10.102;2022-09-09T06:23:25;28.97;;;19.83;;
6292;SDS011;3179;54.350;10.102;2022-09-09T06:26:00;28.03;;;21.10;;
6292;SDS011;3179;54.350;10.102;2022-09-09T06:28:29;29.80;;;21.10;;
6292;SDS011;3179;54.350;10.102;2022-09-09T06:30:59;28.87;;;20.40;;
6292;SDS011;3179;54.350;10.102;2022-09-09T06:33:26;32.43;;;20.80;;
6292;SDS011;3179;54.350;10.102;2022-09-09T06:35:56;28.63;;;19.60;;
6292;SDS011;3179;54.350;10.102;2022-09-09T06:38:23;33.37;;;22.27;;
6292;SDS011;3179;54.350;10.102;2022-09-09T06:40:51;33.93;;;20.07;;
6292;SDS011;3179;54.350;10.102;2022-09-09T06:43:19;32.80;;;20.90;;
6292;SDS011;3179;54.350;10.102;2022-09-09T06:45:53;32.93;;;21.20;;
6292;SDS011;3179;54.350;10.102;2022-09-09T06:48:21;32.10;;;21.20;;
6292;SDS011;3179;54.350;10.102;2022-09-09T06:50:50;36.00;;;21.10;;
6292;SDS011;3179;54.350;10.102;2022-09-09T06:53:19;33.50;;;21.37;;
6292;SDS011;3179;54.350;10.102;2022-09-09T06:55:46;40.87;;;23.53;;
6292;SDS011;3179;54.350;10.102;2022-09-09T06:58:13;37.20;;;23.17;;
6292;SDS011;3179;54.350;10.102;2022-09-09T07:00:39;38.47;;;22.77;;
6292;SDS011;3179;54.350;10.102;2022-09-09T07:03:08;29.60;;;21.17;;
6292;SDS011;3179;54.350;10.102;2022-09-09T07:05:36;38.90;;;22.77;;
6292;SDS011;3179;54.350;10.102;2022-09-09T07:08:03;31.87;;;21.57;;
6292;SDS011;3179;54.350;10.102;2022-09-09T07:10:30;34.07;;;21.77;;
6292;SDS011;3179;54.350;10.102;2022-09-09T07:12:59;37.80;;;22.43;;
6292;SDS011;3179;54.350;10.102;2022-09-09T07:15:26;35.13;;;22.23;;
6292;SDS011;3179;54.350;10.102;2022-09-09T07:17:53;37.63;;;23.17;;
6292;SDS011;3179;54.350;10.102;2022-09-09T07:20:21;33.40;;;22.00;;
6292;SDS011;3179;54.350;10.102;2022-09-09T07:22:48;35.23;;;23.00;;
6292;SDS011;3179;54.350;10.102;2022-09-09T07:25:15;34.83;;;23.63;;
6292;SDS011;3179;54.350;10.102;2022-09-09T07:27:42;38.30;;;23.40;;
6292;SDS011;3179;54.350;10.102;2022-09-09T07:30:10;34.83;;;23.27;;
6292;SDS011;3179;54.350;10.102;2022-09-09T07:32:37;38.20;;;24.10;;
6292;SDS011;3179;54.350;10.102;2022-09-09T07:35:05;34.47;;;20.97;;
6292;SDS011;3179;54.350;10.102;2022-09-09T07:37:35;30.83;;;21.03;;
6292;SDS011;3179;54.350;10.102;2022-09-09T07:40:02;28.83;;;21.57;;
6292;SDS011;3179;54.350;10.102;2022-09-09T07:42:30;31.37;;;22.93;;
6292;SDS011;3179;54.350;10.102;2022-09-09T07:44:56;29.67;;;21.90;;
6292;SDS011;3179;54.350;10.102;2022-09-09T07:47:24;35.00;;;22.83;;
6292;SDS011;3179;54.350;10.102;2022-09-09T07:49:51;30.57;;;20.47;;
6292;SDS011;3179;54.350;10.102;2022-09-09T07:52:18;29.77;;;20.40;;
6292;SDS011;3179;54.350;10.102;2022-09-09T07:54:47;27.53;;;20.90;;
6292;SDS011;3179;54.350;10.102;2022-09-09T07:57:14;31.87;;;20.23;;
6292;SDS011;3179;54.350;10.102;2022-09-09T07:59:41;28.53;;;21.87;;
6292;SDS011;3179;54.350;10.102;2022-09-09T08:02:08;27.63;;;20.40;;
6292;SDS011;3179;54.350;10.102;2022-09-09T08:04:36;26.87;;;20.80;;
6292;SDS011;3179;54.350;10.102;2022-09-09T08:07:03;28.30;;;22.33;;
6292;SDS011;3179;54.350;10.102;2022-09-09T08:09:29;24.63;;;19.87;;
6292;SDS011;3179;54.350;10.102;2022-09-09T08:11:59;27.30;;;20.10;;
6292;SDS011;3179;54.350;10.102;2022-09-09T08:14:27;23.00;;;18.30;;
6292;SDS011;3179;54.350;10.102;2022-09-09T08:16:54;25.67;;;20.90;;
6292;SDS011;3179;54.350;10.102;2022-09-09T08:19:22;26.00;;;19.80;;
6292;SDS011;3179;54.350;10.102;2022-09-09T08:21:49;25.43;;;17.60;;
6292;SDS011;3179;54.350;10.102;2022-09-09T08:24:16;28.37;;;20.70;;
6292;SDS011;3179;54.350;10.102;2022-09-09T08:26:45;27.03;;;18.67;;
6292;SDS011;3179;54.350;10.102;2022-09-09T08:29:15;26.17;;;20.03;;
6292;SDS011;3179;54.350;10.102;2022-09-09T08:31:43;23.43;;;18.43;;
6292;SDS011;3179;54.350;10.102;2022-09-09T08:34:11;21.90;;;17.63;;
6292;SDS011;3179;54.350;10.102;2022-09-09T08:36:39;25.27;;;17.67;;
6292;SDS011;3179;54.350;10.102;2022-09-09T08:39:09;22.17;;;16.73;;
6292;SDS011;3179;54.350;10.102;2022-09-09T08:41:43;24.50;;;18.47;;
6292;SDS011;3179;54.350;10.102;2022-09-09T08:44:29;22.00;;;16.70;;
6292;SDS011;3179;54.350;10.102;2022-09-09T08:47:08;19.80;;;15.60;;
6292;SDS011;3179;54.350;10.102;2022-09-09T08:49:49;20.83;;;16.30;;
6292;SDS011;3179;54.350;10.102;2022-09-09T08:52:28;23.40;;;14.73;;
6292;SDS011;3179;54.350;10.102;2022-09-09T08:55:02;19.43;;;13.70;;
6292;SDS011;3179;54.350;10.102;2022-09-09T08:57:38;17.00;;;13.57;;
6292;SDS011;3179;54.350;10.102;2022-09-09T09:00:09;21.60;;;15.80;;
6292;SDS011;3179;54.350;10.102;2022-09-09T09:02:38;19.13;;;14.30;;
6292;SDS011;3179;54.350;10.102;2022-09-09T09:05:16;17.00;;;14.10;;
6292;SDS011;3179;54.350;10.102;2022-09-09T09:07:53;21.80;;;14.87;;
6292;SDS011;3179;54.350;10.102;2022-09-09T09:10:33;20.60;;;14.27;;
6292;SDS011;3179;54.350;10.102;2022-09-09T09:13:13;20.10;;;15.40;;
6292;SDS011;3179;54.350;10.102;2022-09-09T09:15:43;20.60;;;14.53;;
6292;SDS011;3179;54.350;10.102;2022-09-09T09:18:12;21.20;;;15.63;;
6292;SDS011;3179;54.350;10.102;2022-09-09T09:20:42;19.83;;;15.17;;
6292;SDS011;3179;54.350;10.102;2022-09-09T09:23:18;18.80;;;16.27;;
6292;SDS011;3179;54.350;10.102;2022-09-09T09:25:50;20.77;;;16.60;;
6292;SDS011;3179;54.350;10.102;2022-09-09T09:28:23;20.00;;;15.10;;
6292;SDS011;3179;54.350;10.102;2022-09-09T09:30:53;17.70;;;15.13;;
6292;SDS011;3179;54.350;10.102;2022-09-09T09:33:25;19.47;;;16.27;;
6292;SDS011;3179;54.350;10.102;2022-09-09T09:35:55;16.70;;;15.00;;
6292;SDS011;3179;54.350;10.102;2022-09-09T09:38:22;17.40;;;14.57;;
6292;SDS011;3179;54.350;10.102;2022-09-09T09:40:52;17.47;;;14.00;;
6292;SDS011;3179;54.350;10.102;2022-09-09T09:43:23;15.73;;;14.13;;
6292;SDS011;3179;54.350;10.102;2022-09-09T09:45:54;15.43;;;13.67;;
6292;SDS011;3179;54.350;10.102;2022-09-09T09:48:23;17.40;;;14.73;;
6292;SDS011;3179;54.350;10.102;2022-09-09T09:50:50;18.47;;;14.70;;
6292;SDS011;3179;54.350;10.102;2022-09-09T09:53:21;15.60;;;13.77;;
6292;SDS011;3179;54.350;10.102;2022-09-09T09:55:52;14.90;;;13.40;;
6292;SDS011;3179;54.350;10.102;2022-09-09T09:58:21;15.80;;;13.47;;
6292;SDS011;3179;54.350;10.102;2022-09-09T10:00:48;15.73;;;13.80;;
6292;SDS011;3179;54.350;10.102;2022-09-09T10:03:21;14.50;;;12.60;;
6292;SDS011;3179;54.350;10.102;2022-09-09T10:05:50;15.57;;;12.17;;
6292;SDS011;3179;54.350;10.102;2022-09-09T10:08:18;13.70;;;11.30;;
6292;SDS011;3179;54.350;10.102;2022-09-09T10:10:48;17.10;;;11.87;;
6292;SDS011;3179;54.350;10.102;2022-09-09T10:13:25;12.70;;;11.40;;
6292;SDS011;3179;54.350;10.102;2022-09-09T10:16:05;11.57;;;10.40;;
6292;SDS011;3179;54.350;10.102;2022-09-09T10:18:49;11.07;;;10.07;;
6292;SDS011;3179;54.350;10.102;2022-09-09T10:21:31;12.33;;;9.87;;
6292;SDS011;3179;54.350;10.102;2022-09-09T10:24:28;11.13;;;10.00;;
6292;SDS011;3179;54.350;10.102;2022-09-09T10:27:11;9.90;;;8.43;;
6292;SDS011;3179;54.350;10.102;2022-09-09T10:29:49;7.10;;;6.50;;
6292;SDS011;3179;54.350;10.102;2022-09-09T10:32:31;7.10;;;6.40;;
6292;SDS011;3179;54.350;10.102;2022-09-09T10:35:08;6.57;;;5.90;;
6292;SDS011;3179;54.350;10.102;2022-09-09T10:37:41;6.77;;;6.13;;
6292;SDS011;3179;54.350;10.102;2022-09-09T10:40:20;6.63;;;5.93;;
6292;SDS011;3179;54.350;10.102;2022-09-09T10:42:55;5.27;;;4.50;;
6292;SDS011;3179;54.350;10.102;2022-09-09T10:45:31;6.53;;;5.30;;
6292;SDS011;3179;54.350;10.102;2022-09-09T10:48:07;9.80;;;5.27;;
6292;SDS011;3179;54.350;10.102;2022-09-09T10:50:52;10.00;;;6.10;;
6292;SDS011;3179;54.350;10.102;2022-09-09T10:53:29;9.53;;;4.70;;
6292;SDS011;3179;54.350;10.102;2022-09-09T10:56:03;6.03;;;5.10;;
6292;SDS011;3179;54.350;10.102;2022-09-09T10:58:35;4.57;;;4.17;;
6292;SDS011;3179;54.350;10.102;2022-09-09T11:01:09;5.20;;;4.00;;
6292;SDS011;3179;54.350;10.102;2022-09-09T11:03:42;6.07;;;4.20;;
6292;SDS011;3179;54.350;10.102;2022-09-09T11:06:14;3.73;;;2.80;;
6292;SDS011;3179;54.350;10.102;2022-09-09T11:08:44;6.67;;;3.87;;
6292;SDS011;3179;54.350;10.102;2022-09-09T11:11:15;4.23;;;3.40;;
6292;SDS011;3179;54.350;10.102;2022-09-09T11:13:48;2.67;;;2.30;;
6292;SDS011;3179;54.350;10.102;2022-09-09T11:16:22;3.30;;;2.47;;
6292;SDS011;3179;54.350;10.102;2022-09-09T11:18:55;3.10;;;2.20;;
6292;SDS011;3179;54.350;10.102;2022-09-09T11:21:29;1.90;;;1.80;;
6292;SDS011;3179;54.350;10.102;2022-09-09T11:24:01;2.30;;;2.10;;
6292;SDS011;3179;54.350;10.102;2022-09-09T11:26:31;1.70;;;1.60;;
6292;SDS011;3179;54.350;10.102;2022-09-09T11:29:10;2.80;;;1.50;;
6292;SDS011;3179;54.350;10.102;2022-09-09T11:31:56;2.30;;;1.60;;
6292;SDS011;3179;54.350;10.102;2022-09-09T11:34:37;1.93;;;1.17;;
6292;SDS011;3179;54.350;10.102;2022-09-09T11:37:19;1.83;;;1.60;;
6292;SDS011;3179;54.350;10.102;2022-09-09T11:40:18;1.53;;;1.03;;
6292;SDS011;3179;54.350;10.102;2022-09-09T11:42:48;3.33;;;1.20;;
6292;SDS011;3179;54.350;10.102;2022-09-09T11:45:27;6.93;;;1.43;;
6292;SDS011;3179;54.350;10.102;2022-09-09T11:47:55;4.20;;;1.20;;
6292;SDS011;3179;54.350;10.102;2022-09-09T11:50:30;1.00;;;0.90;;
6292;SDS011;3179;54.350;10.102;2022-09-09T11:53:16;0.80;;;0.80;;
6292;SDS011;3179;54.350;10.102;2022-09-09T11:55:59;2.80;;;1.10;;
6292;SDS011;3179;54.350;10.102;2022-09-09T11:58:36;1.40;;;0.90;;
6292;SDS011;3179;54.350;10.102;2022-09-09T12:03:59;1.60;;;1.00;;
6292;SDS011;3179;54.350;10.102;2022-09-09T12:06:41;0.97;;;0.90;;
6292;SDS011;3179;54.350;10.102;2022-09-09T12:09:15;1.43;;;1.00;;
6292;SDS011;3179;54.350;10.102;2022-09-09T12:11:48;1.20;;;0.90;;
6292;SDS011;3179;54.350;10.102;2022-09-09T12:14:19;4.30;;;0.90;;
6292;SDS011;3179;54.350;10.102;2022-09-09T12:16:48;2.10;;;0.90;;
6292;SDS011;3179;54.350;10.102;2022-09-09T12:19:18;1.70;;;1.00;;
6292;SDS011;3179;54.350;10.102;2022-09-09T12:21:48;1.83;;;1.00;;
6292;SDS011;3179;54.350;10.102;2022-09-09T12:24:23;1.70;;;0.80;;
6292;SDS011;3179;54.350;10.102;2022-09-09T12:26:58;1.60;;;0.90;;
6292;SDS011;3179;54.350;10.102;2022-09-09T12:29:35;3.93;;;1.00;;
6292;SDS011;3179;54.350;10.102;2022-09-09T12:32:08;3.50;;;0.90;;
6292;SDS011;3179;54.350;10.102;2022-09-09T12:34:38;2.37;;;0.80;;
6292;SDS011;3179;54.350;10.102;2022-09-09T12:37:11;4.27;;;1.20;;
6292;SDS011;3179;54.350;10.102;2022-09-09T12:39:47;1.93;;;0.83;;
6292;SDS011;3179;54.350;10.102;2022-09-09T12:42:18;1.17;;;0.70;;
6292;SDS011;3179;54.350;10.102;2022-09-09T12:44:56;1.53;;;0.73;;
6292;SDS011;3179;54.350;10.102;2022-09-09T12:47:37;1.33;;;1.00;;
6292;SDS011;3179;54.350;10.102;2022-09-09T12:50:14;2.60;;;0.80;;
6292;SDS011;3179;54.350;10.102;2022-09-09T12:52:43;2.93;;;0.87;;
6292;SDS011;3179;54.350;10.102;2022-09-09T12:55:16;1.90;;;0.67;;
6292;SDS011;3179;54.350;10.102;2022-09-09T12:57:46;5.93;;;1.37;;
6292;SDS011;3179;54.350;10.102;2022-09-09T13:00:16;0.70;;;0.70;;
6292;SDS011;3179;54.350;10.102;2022-09-09T13:02:46;0.83;;;0.70;;
6292;SDS011;3179;54.350;10.102;2022-09-09T13:05:16;1.00;;;0.80;;
6292;SDS011;3179;54.350;10.102;2022-09-09T13:07:45;3.03;;;0.80;;
6292;SDS011;3179;54.350;10.102;2022-09-09T13:10:12;3.43;;;1.20;;
6292;SDS011;3179;54.350;10.102;2022-09-09T13:12:41;1.20;;;0.73;;
6292;SDS011;3179;54.350;10.102;2022-09-09T13:15:11;1.77;;;0.80;;
6292;SDS011;3179;54.350;10.102;2022-09-09T13:17:49;4.00;;;0.73;;
6292;SDS011;3179;54.350;10.102;2022-09-09T13:20:17;1.47;;;0.70;;
6292;SDS011;3179;54.350;10.102;2022-09-09T13:22:46;2.97;;;0.80;;
6292;SDS011;3179;54.350;10.102;2022-09-09T13:25:18;2.23;;;0.80;;
6292;SDS011;3179;54.350;10.102;2022-09-09T13:27:55;1.43;;;0.63;;
6292;SDS011;3179;54.350;10.102;2022-09-09T13:30:25;2.10;;;0.90;;
6292;SDS011;3179;54.350;10.102;2022-09-09T13:33:05;4.40;;;1.10;;
6292;SDS011;3179;54.350;10.102;2022-09-09T13:35:49;1.67;;;0.60;;
6292;SDS011;3179;54.350;10.102;2022-09-09T13:38:19;3.57;;;0.80;;
6292;SDS011;3179;54.350;10.102;2022-09-09T13:40:53;1.53;;;0.60;;
6292;SDS011;3179;54.350;10.102;2022-09-09T13:43:24;1.67;;;0.70;;
6292;SDS011;3179;54.350;10.102;2022-09-09T13:45:53;1.13;;;0.60;;
6292;SDS011;3179;54.350;10.102;2022-09-09T13:48:21;2.50;;;0.80;;
6292;SDS011;3179;54.350;10.102;2022-09-09T13:50:53;1.27;;;0.80;;
6292;SDS011;3179;54.350;10.102;2022-09-09T13:53:22;1.00;;;0.70;;
6292;SDS011;3179;54.350;10.102;2022-09-09T13:55:48;1.63;;;0.80;;
6292;SDS011;3179;54.350;10.102;2022-09-09T13:58:17;2.00;;;0.83;;
6292;SDS011;3179;54.350;10.102;2022-09-09T14:00:46;0.90;;;0.67;;
6292;SDS011;3179;54.350;10.102;2022-09-09T14:03:13;1.73;;;1.00;;
6292;SDS011;3179;54.350;10.102;2022-09-09T14:05:39;1.73;;;0.93;;
6292;SDS011;3179;54.350;10.102;2022-09-09T14:08:07;1.43;;;0.70;;
6292;SDS011;3179;54.350;10.102;2022-09-09T14:10:41;3.13;;;0.80;;
6292;SDS011;3179;54.350;10.102;2022-09-09T14:13:07;1.33;;;0.70;;
6292;SDS011;3179;54.350;10.102;2022-09-09T14:15:34;1.13;;;0.70;;
6292;SDS011;3179;54.350;10.102;2022-09-09T14:18:02;2.90;;;0.80;;
6292;SDS011;3179;54.350;10.102;2022-09-09T14:20:29;2.83;;;0.67;;
6292;SDS011;3179;54.350;10.102;2022-09-09T14:22:56;1.13;;;0.60;;
6292;SDS011;3179;54.350;10.102;2022-09-09T14:25:23;1.57;;;0.83;;
6292;SDS011;3179;54.350;10.102;2022-09-09T14:27:50;6.07;;;0.80;;
6292;SDS011;3179;54.350;10.102;2022-09-09T14:30:17;2.30;;;1.10;;
6292;SDS011;3179;54.350;10.102;2022-09-09T14:32:44;0.97;;;0.70;;
6292;SDS011;3179;54.350;10.102;2022-09-09T14:35:13;2.33;;;1.00;;
6292;SDS011;3179;54.350;10.102;2022-09-09T14:37:40;3.43;;;1.20;;
6292;SDS011;3179;54.350;10.102;2022-09-09T14:40:07;2.87;;;0.90;;
6292;SDS011;3179;54.350;10.102;2022-09-09T14:42:34;9.40;;;1.40;;
6292;SDS011;3179;54.350;10.102;2022-09-09T14:45:01;2.13;;;1.10;;
6292;SDS011;3179;54.350;10.102;2022-09-09T14:47:27;2.30;;;1.23;;
6292;SDS011;3179;54.350;10.102;2022-09-09T14:49:55;2.30;;;0.90;;
6292;SDS011;3179;54.350;10.102;2022-09-09T14:52:23;1.80;;;0.93;;
6292;SDS011;3179;54.350;10.102;2022-09-09T14:54:51;4.40;;;1.43;;
6292;SDS011;3179;54.350;10.102;2022-09-09T14:57:18;4.60;;;2.30;;
6292;SDS011;3179;54.350;10.102;2022-09-09T14:59:45;4.83;;;1.70;;
6292;SDS011;3179;54.350;10.102;2022-09-09T15:02:11;3.73;;;1.93;;
6292;SDS011;3179;54.350;10.102;2022-09-09T15:04:39;10.23;;;2.20;;
6292;SDS011;3179;54.350;10.102;2022-09-09T15:07:05;5.33;;;1.60;;
6292;SDS011;3179;54.350;10.102;2022-09-09T15:09:33;6.03;;;1.30;;